Time;durP1;ratioP1;P1;durP2;ratioP2;P2;SDS_P1;SDS_P2;PMS_P1;PMS_P2;Temp;Humidity;BMP_temperature;BMP_pressure;BME280_temperature;BME280_humidity;BME280_pressure;Samples;Min_cycle;Max_cycle;Signal;HPM_P1;HPM_P2
2022/04/18 00:03:07;;;;;;;;;;;;;;;18.56;29.86;95944.66;10476052;28;2275;-40
2022/04/18 00:08:12;;;;;;;;;;;;;;;18.56;29.95;95949.91;10482238;28;1471;-39
2022/04/18 00:13:12;;;;;;;;;;;;;;;18.55;29.99;95943.84;10481277;28;1971;-39
2022/04/18 00:18:13;;;;;;;;;;;;;;;18.54;29.98;95938.88;10481483;28;1499;-39
2022/04/18 00:23:13;;;;;;;;;;;;;;;18.53;29.88;95929.41;10478827;28;1685;-43
2022/04/18 00:28:15;;;;;;;;;;;;;;;18.51;30.00;95919.16;10483692;28;1619;-47
2022/04/18 00:33:16;;;;;;;;;;;;;;;18.53;29.95;95917.06;10472662;28;2002;-41
2022/04/18 00:38:16;;;;;;;;;;;;;;;18.55;29.74;95922.06;10482642;28;1992;-40
2022/04/18 00:43:16;;;;;;;;;;;;;;;18.52;29.90;95914.72;10479068;28;1918;-41
2022/04/18 00:48:17;;;;;;;;;;;;;;;18.49;29.88;95909.97;10478759;28;1873;-41
2022/04/18 00:53:18;;;;;;;;;;;;;;;18.52;29.83;95914.72;10475772;28;1981;-41
2022/04/18 00:58:18;;;;;;;;;;;;;;;18.52;29.83;95912.09;10479270;28;1945;-40
2022/04/18 01:03:19;;;;;;;;;;;;;;;18.52;29.73;95901.59;10475417;28;2357;-40
2022/04/18 01:08:19;;;;;;;;;;;;;;;18.50;29.88;95904.47;10475058;28;1881;-40
2022/04/18 01:13:20;;;;;;;;;;;;;;;18.49;29.75;95881.88;10477010;28;1905;-42
2022/04/18 01:18:33;;;;;;;;;;;;;;;18.48;29.74;95882.94;10479123;28;2427;-42
2022/04/18 01:23:34;;;;;;;;;;;;;;;18.49;29.73;95881.09;10477205;28;2057;-38
2022/04/18 01:34:03;;;;;;;;;;;;;;;18.51;29.59;95873.75;10476961;28;1961;-43
2022/04/18 01:39:03;;;;;;;;;;;;;;;18.49;29.84;95873.22;10490023;22;3643;-57
2022/04/18 01:44:05;;;;;;;;;;;;;;;18.47;29.83;95859.56;10395278;28;1877;-56
2022/04/18 01:49:05;;;;;;;;;;;;;;;18.48;29.71;95858.53;10402573;28;2325;-57
2022/04/18 01:54:05;;;;;;;;;;;;;;;18.47;29.68;95859.56;10404601;28;1988;-58
2022/04/18 01:59:07;;;;;;;;;;;;;;;18.47;29.66;95856.94;10377913;28;1927;-53
2022/04/18 02:04:08;;;;;;;;;;;;;;;18.47;29.88;95849.06;10400577;28;2272;-54
2022/04/18 02:09:09;;;;;;;;;;;;;;;18.44;29.69;95850.34;10381095;28;1791;-58
2022/04/18 02:14:09;;;;;;;;;;;;;;;18.45;29.52;95840.66;10384097;28;1918;-56
2022/04/18 02:19:12;;;;;;;;;;;;;;;18.45;29.76;95830.16;10404156;28;1792;-59
2022/04/18 02:24:14;;;;;;;;;;;;;;;18.44;29.68;95834.59;10382806;28;1724;-56
2022/04/18 02:29:14;;;;;;;;;;;;;;;18.45;29.61;95830.94;10389706;28;1997;-57
2022/04/18 02:34:15;;;;;;;;;;;;;;;18.43;29.61;95822.53;10375506;28;1910;-58
2022/04/18 02:39:16;;;;;;;;;;;;;;;18.43;29.59;95816.47;10401978;28;2264;-59
2022/04/18 02:44:16;;;;;;;;;;;;;;;18.39;29.71;95813.56;10382824;28;2205;-58
2022/04/18 02:49:16;;;;;;;;;;;;;;;18.42;29.69;95812.28;10391222;28;1878;-57
2022/04/18 02:54:17;;;;;;;;;;;;;;;18.40;29.69;95807.28;10385484;28;1970;-60
2022/04/18 02:59:17;;;;;;;;;;;;;;;18.41;29.67;95797.56;10390053;28;1504;-60
2022/04/18 03:04:18;;;;;;;;;;;;;;;18.41;29.73;95800.19;10379208;28;2148;-59
2022/04/18 03:09:19;;;;;;;;;;;;;;;18.40;29.66;95794.16;10406262;28;1498;-60
2022/04/18 03:14:19;;;;;;;;;;;;;;;18.40;29.58;95785.50;10383999;28;1922;-59
2022/04/18 03:19:20;;;;;;;;;;;;;;;18.38;29.50;95780.50;10407711;28;1524;-60
2022/04/18 03:24:21;;;;;;;;;;;;;;;18.37;29.64;95773.69;10396137;28;1538;-59
2022/04/18 03:29:21;;;;;;;;;;;;;;;18.39;29.62;95776.03;10404544;28;1427;-55
2022/04/18 03:34:22;;;;;;;;;;;;;;;18.37;29.68;95765.81;10391636;28;1917;-56
2022/04/18 03:44:43;;;;;;;;;;;;;;;18.36;29.80;95763.44;10400198;28;1522;-59
2022/04/18 03:49:43;;;;;;;;;;;;;;;18.37;29.70;95762.38;10385230;28;1669;-60
2022/04/18 03:54:43;;;;;;;;;;;;;;;18.37;29.78;95762.38;10381405;28;1902;-60
2022/04/18 03:59:44;;;;;;;;;;;;;;;18.35;29.71;95759.22;10380656;28;1520;-59
2022/04/18 04:04:44;;;;;;;;;;;;;;;18.35;29.81;95761.84;10379442;28;1415;-59
2022/04/18 04:09:45;;;;;;;;;;;;;;;18.35;29.80;95761.84;10381829;28;1531;-58
2022/04/18 04:14:46;;;;;;;;;;;;;;;18.33;29.83;95756.09;10396998;28;1906;-59
2022/04/18 04:19:47;;;;;;;;;;;;;;;18.32;29.69;95755.28;10390927;28;2048;-58
2022/04/18 04:24:47;;;;;;;;;;;;;;;18.32;29.80;95759.75;10387061;28;1522;-56
2022/04/18 04:29:48;;;;;;;;;;;;;;;18.33;29.77;95750.84;10408793;28;1525;-59
2022/04/18 04:34:49;;;;;;;;;;;;;;;18.32;29.78;95749.28;10380937;28;1914;-60
2022/04/18 04:39:49;;;;;;;;;;;;;;;18.29;29.67;95760.28;10389534;28;1520;-58
2022/04/18 04:44:49;;;;;;;;;;;;;;;18.30;29.78;95754.75;10404433;28;1428;-57
2022/04/18 04:49:49;;;;;;;;;;;;;;;18.29;29.75;95757.66;10390236;28;1569;-58
2022/04/18 04:54:55;;;;;;;;;;;;;;;18.29;29.70;95752.41;10403146;28;1909;-58
2022/04/18 04:59:55;;;;;;;;;;;;;;;18.29;29.81;95749.78;10388472;28;1740;-56
2022/04/18 05:04:56;;;;;;;;;;;;;;;18.28;29.79;95748.22;10379733;28;1514;-57
2022/04/18 05:09:56;;;;;;;;;;;;;;;18.28;29.84;95759.47;10388329;28;1511;-54
2022/04/18 05:15:03;;;;;;;;;;;;;;;18.29;29.72;95762.91;10384486;28;1913;-59
2022/04/18 05:20:04;;;;;;;;;;;;;;;18.27;29.67;95757.13;10400707;28;1772;-58
2022/04/18 05:25:04;;;;;;;;;;;;;;;18.27;29.68;95762.38;10382124;28;1528;-59
2022/04/18 05:30:05;;;;;;;;;;;;;;;18.28;29.72;95761.34;10384932;28;1982;-58
2022/04/18 05:35:06;;;;;;;;;;;;;;;18.27;29.68;95765.78;10381122;28;1903;-58
2022/04/18 05:40:06;;;;;;;;;;;;;;;18.26;29.90;95768.69;10386607;28;1554;-58
2022/04/18 05:45:07;;;;;;;;;;;;;;;18.26;29.66;95763.44;10366032;28;1651;-59
2022/04/18 05:50:07;;;;;;;;;;;;;;;18.25;29.83;95777.56;10387545;28;1506;-59
2022/04/18 05:55:08;;;;;;;;;;;;;;;18.25;29.78;95774.94;10387969;28;1910;-59
2022/04/18 06:00:08;;;;;;;;;;;;;;;18.27;29.49;95778.91;10385979;28;1707;-56
2022/04/18 06:05:09;;;;;;;;;;;;;;;18.25;29.88;95773.13;10382573;28;1668;-57
2022/04/18 06:10:09;;;;;;;;;;;;;;;18.25;29.81;95777.56;10383246;28;1467;-58
2022/04/18 06:15:10;;;;;;;;;;;;;;;18.24;30.07;95771.53;10403530;28;1898;-54
2022/04/18 06:20:10;;;;;;;;;;;;;;;18.24;29.86;95768.91;10378624;28;1864;-57
2022/04/18 06:25:10;;;;;;;;;;;;;;;18.24;29.70;95773.38;10403330;28;1487;-59
2022/04/18 06:30:11;;;;;;;;;;;;;;;18.23;29.85;95769.19;10402210;28;1524;-57
2022/04/18 06:35:11;;;;;;;;;;;;;;;18.22;29.80;95760.50;10401988;28;1954;-57
2022/04/18 06:40:12;;;;;;;;;;;;;;;18.20;29.86;95759.19;10404519;28;1557;-59
2022/04/18 06:45:12;;;;;;;;;;;;;;;18.20;29.68;95759.19;10400600;28;1489;-58
2022/04/18 06:50:12;;;;;;;;;;;;;;;18.19;29.69;95755.00;10401214;28;1479;-57
2022/04/18 06:55:13;;;;;;;;;;;;;;;18.19;29.73;95758.41;10400307;28;1906;-57
2022/04/18 07:00:14;;;;;;;;;;;;;;;18.19;29.67;95766.28;10382152;28;2119;-58
2022/04/18 07:05:16;;;;;;;;;;;;;;;18.18;29.64;95758.66;10382037;28;2320;-54
2022/04/18 07:10:16;;;;;;;;;;;;;;;18.19;29.59;95766.28;10384535;28;1463;-57
2022/04/18 07:15:16;;;;;;;;;;;;;;;18.21;29.58;95763.41;10378771;28;1975;-56
2022/04/18 07:20:17;;;;;;;;;;;;;;;18.19;29.63;95768.13;10385043;28;1531;-55
2022/04/18 07:25:17;;;;;;;;;;;;;;;18.18;29.66;95763.91;10373941;28;1474;-58
2022/04/18 07:30:18;;;;;;;;;;;;;;;18.18;29.54;95762.06;10381102;28;1468;-59
2022/04/18 07:35:18;;;;;;;;;;;;;;;18.17;29.63;95767.59;10370916;28;1910;-58
2022/04/18 07:45:26;;;;;;;;;;;;;;;18.15;29.61;95767.06;10394143;28;2184;-44
2022/04/18 07:51:31;;;;;;;;;;;;;;;18.15;29.62;95764.44;10396903;28;1516;-42
2022/04/18 07:55:47;;;;;;;;;;;;;;;18.14;29.69;95768.09;10379924;28;1605;-42
2022/04/18 08:00:47;;;;;;;;;;;;;;;18.14;29.62;95766.25;10379744;28;2064;-40
2022/04/18 08:05:47;;;;;;;;;;;;;;;18.14;29.53;95771.50;10382733;28;1416;-42
2022/04/18 08:10:48;;;;;;;;;;;;;;;18.16;29.55;95764.16;10379550;28;1914;-42
2022/04/18 08:15:48;;;;;;;;;;;;;;;18.14;29.59;95774.13;10376079;28;1497;-38
2022/04/18 08:20:49;;;;;;;;;;;;;;;18.14;29.58;95768.09;10389731;28;1800;-38
2022/04/18 08:25:49;;;;;;;;;;;;;;;18.13;29.61;95762.06;10379175;28;1532;-42
2022/04/18 08:30:50;;;;;;;;;;;;;;;18.12;29.69;95768.34;10378087;28;1914;-39
2022/04/18 08:35:50;;;;;;;;;;;;;;;18.13;29.66;95766.53;10375174;28;1496;-39
2022/04/18 08:40:51;;;;;;;;;;;;;;;18.12;29.64;95768.34;10394353;28;1558;-37
2022/04/18 08:45:52;;;;;;;;;;;;;;;18.13;29.78;95767.31;10386524;28;1447;-39
2022/04/18 08:56:12;;;;;;;;;;;;;;;18.15;29.68;95761.81;10394233;28;1535;-39
2022/04/18 09:01:12;;;;;;;;;;;;;;;18.15;29.70;95759.19;10397586;28;1439;-41
2022/04/18 09:06:13;;;;;;;;;;;;;;;18.14;29.80;95758.38;10374763;28;1503;-38
2022/04/18 09:11:32;;;;;;;;;;;;;;;18.12;29.78;95763.09;10394211;28;1926;-38
2022/04/18 09:16:33;;;;;;;;;;;;;;;18.13;29.76;95759.44;10376035;28;1862;-41
2022/04/18 09:21:33;;;;;;;;;;;;;;;18.12;29.86;95749.97;10394708;28;1436;-38
2022/04/18 09:26:34;;;;;;;;;;;;;;;18.15;29.83;95746.06;10393650;28;1495;-39
2022/04/18 09:31:38;;;;;;;;;;;;;;;18.11;29.86;95737.13;10376764;28;1910;-41
2022/04/18 09:36:38;;;;;;;;;;;;;;;18.08;30.12;95727.94;10394581;28;1611;-38
2022/04/18 09:41:39;;;;;;;;;;;;;;;18.10;30.04;95725.06;10377877;28;1450;-41
2022/04/18 09:46:39;;;;;;;;;;;;;;;18.08;30.00;95732.38;10393596;28;1480;-42
2022/04/18 09:51:43;;;;;;;;;;;;;;;18.04;30.10;95723.47;10392643;28;1910;-43
2022/04/18 09:56:47;;;;;;;;;;;;;;;18.09;29.95;95734.78;10378192;28;1548;-38
2022/04/18 10:01:47;;;;;;;;;;;;;;;18.08;29.87;95725.31;10374711;28;1447;-40
2022/04/18 10:06:50;;;;;;;;;;;;;;;18.04;30.04;95732.13;10380456;28;1786;-40
2022/04/18 10:11:50;;;;;;;;;;;;;;;18.06;30.02;95729.25;10358135;28;1979;-39
2022/04/18 10:16:51;;;;;;;;;;;;;;;18.06;30.11;95718.75;10392662;28;1471;-38
2022/04/18 10:22:01;;;;;;;;;;;;;;;18.08;30.07;95719.28;10381123;28;1415;-40
2022/04/18 10:27:01;;;;;;;;;;;;;;;18.07;30.09;95722.97;10373740;28;1551;-39
2022/04/18 10:32:03;;;;;;;;;;;;;;;18.06;30.03;95722.16;10392125;28;1971;-40
2022/04/18 10:37:04;;;;;;;;;;;;;;;18.06;30.11;95708.25;10385573;28;1833;-45
2022/04/18 10:42:20;;;;;;;;;;;;;;;18.09;30.09;95694.63;10373370;28;1487;-41
2022/04/18 10:47:20;;;;;;;;;;;;;;;18.07;30.16;95692.28;10391323;28;1496;-40
2022/04/18 10:52:27;;;;;;;;;;;;;;;18.06;30.28;95693.31;10389770;28;1971;-41
2022/04/18 10:57:27;;;;;;;;;;;;;;;18.10;30.09;95685.69;10395169;28;1468;-40
2022/04/18 11:02:38;;;;;;;;;;;;;;;18.10;30.16;95683.88;10357123;28;1770;-37
2022/04/18 11:07:39;;;;;;;;;;;;;;;18.10;30.19;95680.47;10388923;28;1496;-40
2022/04/18 11:12:43;;;;;;;;;;;;;;;18.12;30.11;95678.38;10376591;28;3134;-42
2022/04/18 11:17:43;;;;;;;;;;;;;;;18.11;30.13;95674.19;10390299;28;1547;-40
2022/04/18 11:22:43;;;;;;;;;;;;;;;18.12;30.27;95675.75;10388746;28;1629;-40
2022/04/18 11:27:44;;;;;;;;;;;;;;;18.12;30.30;95665.25;10379745;28;1492;-42
2022/04/18 11:32:45;;;;;;;;;;;;;;;18.15;30.31;95668.16;10398349;28;1973;-40
2022/04/18 11:37:45;;;;;;;;;;;;;;;18.14;30.40;95663.16;10384480;28;1399;-40
2022/04/18 11:42:46;;;;;;;;;;;;;;;18.15;30.51;95656.88;10393303;28;1456;-41
2022/04/18 11:47:47;;;;;;;;;;;;;;;18.20;30.33;95651.63;10380244;28;1464;-44
2022/04/18 11:52:48;;;;;;;;;;;;;;;18.17;30.24;95654.78;10381076;28;2238;-38
2022/04/18 11:57:48;;;;;;;;;;;;;;;18.18;30.34;95651.88;10398960;28;1590;-40
2022/04/18 12:08:09;;;;;;;;;;;;;;;18.17;30.23;95631.16;10377155;28;1495;-40
2022/04/18 12:13:10;;;;;;;;;;;;;;;18.12;30.43;95624.06;10405880;28;1981;-39
2022/04/18 12:18:11;;;;;;;;;;;;;;;18.15;30.40;95623.56;10413503;28;1532;-41
2022/04/18 12:23:19;;;;;;;;;;;;;;;18.16;30.28;95619.09;10398569;28;1602;-46
2022/04/18 12:28:20;;;;;;;;;;;;;;;18.17;30.19;95616.22;10378503;28;2419;-39
2022/04/18 12:33:21;;;;;;;;;;;;;;;18.14;30.41;95605.44;10396710;28;1971;-40
2022/04/18 12:38:31;;;;;;;;;;;;;;;18.16;30.31;95598.09;10393466;28;1539;-43
2022/04/18 12:43:32;;;;;;;;;;;;;;;18.17;30.18;95590.00;10373364;28;1577;-39
2022/04/18 12:48:33;;;;;;;;;;;;;;;18.20;30.22;95591.28;10395846;28;1531;-39
2022/04/18 12:53:46;;;;;;;;;;;;;;;18.16;30.26;95587.59;10379326;28;1914;-41
2022/04/18 12:58:58;;;;;;;;;;;;;;;18.17;30.39;95586.56;10385480;28;1582;-40
2022/04/18 13:03:59;;;;;;;;;;;;;;;18.17;30.31;95581.31;10391824;28;1475;-39
2022/04/18 13:09:03;;;;;;;;;;;;;;;18.16;30.29;95575.28;10372418;28;1794;-38
2022/04/18 13:14:04;;;;;;;;;;;;;;;18.17;30.34;95568.19;10371362;28;1914;-38
2022/04/18 13:19:05;;;;;;;;;;;;;;;18.18;30.35;95559.28;10394107;28;1480;-39
2022/04/18 13:24:05;;;;;;;;;;;;;;;18.19;30.32;95555.63;10381340;28;1524;-44
2022/04/18 13:29:06;;;;;;;;;;;;;;;18.17;30.41;95557.72;10398951;28;1546;-40
2022/04/18 13:34:06;;;;;;;;;;;;;;;18.16;30.54;95549.03;10378499;28;1910;-40
2022/04/18 13:39:09;;;;;;;;;;;;;;;18.17;30.50;95536.72;10379655;28;1479;-40
2022/04/18 13:44:09;;;;;;;;;;;;;;;18.19;30.44;95532.78;10380823;28;1710;-40
2022/04/18 13:49:10;;;;;;;;;;;;;;;18.19;30.59;95529.38;10407416;22;2478;-54
2022/04/18 13:54:10;;;;;;;;;;;;;;;18.17;30.48;95524.41;10392433;28;1967;-54
2022/04/18 13:59:11;;;;;;;;;;;;;;;18.19;30.52;95524.13;10385182;28;1452;-49
2022/04/18 14:04:11;;;;;;;;;;;;;;;18.18;30.55;95512.06;10382090;28;1489;-50
2022/04/18 14:09:13;;;;;;;;;;;;;;;18.17;30.50;95513.13;10386421;28;1548;-53
2022/04/18 14:20:20;;;;;;;;;;;;;;;18.16;30.49;95506.28;10381951;28;1978;-54
2022/04/18 14:24:53;;;;;;;;;;;;;;;18.14;30.51;95488.19;10386384;28;1472;-51
2022/04/18 14:29:55;;;;;;;;;;;;;;;18.13;30.44;95498.94;10380726;28;1653;-55
2022/04/18 14:34:56;;;;;;;;;;;;;;;18.15;30.49;95492.41;10384320;28;1967;-51
2022/04/18 14:39:56;;;;;;;;;;;;;;;18.13;30.48;95486.63;10388678;28;1887;-54
2022/04/18 14:44:57;;;;;;;;;;;;;;;18.14;30.48;95490.03;10378295;28;1897;-51
2022/04/18 14:49:58;;;;;;;;;;;;;;;18.11;30.59;95486.13;10387942;28;1437;-52
2022/04/18 14:54:58;;;;;;;;;;;;;;;18.12;30.48;95481.63;10381944;28;1903;-53
2022/04/18 15:00:00;;;;;;;;;;;;;;;18.12;30.55;95477.19;10380500;28;1442;-52
2022/04/18 15:05:00;;;;;;;;;;;;;;;18.12;30.51;95476.38;10374079;28;1524;-51
2022/04/18 15:10:01;;;;;;;;;;;;;;;18.09;30.44;95475.09;10385768;28;1533;-50
2022/04/18 15:15:02;;;;;;;;;;;;;;;18.10;30.53;95468.00;10378046;28;1910;-52
2022/04/18 15:20:02;;;;;;;;;;;;;;;18.11;30.41;95472.19;10379376;28;1537;-48
2022/04/18 15:25:03;;;;;;;;;;;;;;;18.10;30.50;95465.38;10385418;28;1796;-53
2022/04/18 15:35:25;;;;;;;;;;;;;;;18.07;30.38;95456.22;10380977;28;1976;-48
2022/04/18 15:40:25;;;;;;;;;;;;;;;18.06;30.48;95459.06;10382157;28;1491;-52
2022/04/18 15:45:26;;;;;;;;;;;;;;;18.06;30.40;95459.06;10380622;28;1482;-49
2022/04/18 15:50:27;;;;;;;;;;;;;;;18.06;30.42;95467.75;10381813;28;1565;-54
2022/04/18 15:55:27;;;;;;;;;;;;;;;18.07;30.47;95465.91;10383782;28;1914;-48
2022/04/18 16:00:28;;;;;;;;;;;;;;;18.05;30.47;95465.38;10375775;28;1562;-48
2022/04/18 16:05:28;;;;;;;;;;;;;;;18.04;30.44;95467.22;10377189;28;1699;-51
2022/04/18 16:10:30;;;;;;;;;;;;;;;18.04;30.36;95469.84;10386415;28;1419;-51
2022/04/18 16:15:31;;;;;;;;;;;;;;;18.04;30.43;95459.34;10388154;28;1918;-55
2022/04/18 16:20:31;;;;;;;;;;;;;;;18.04;30.45;95463.81;10386873;28;1464;-52
2022/04/18 16:25:34;;;;;;;;;;;;;;;18.03;30.37;95467.50;10388382;28;1500;-49
2022/04/18 16:35:53;;;;;;;;;;;;;;;18.01;30.56;95464.34;10388014;28;1914;-52
2022/04/18 16:46:13;;;;;;;;;;;;;;;18.00;30.36;95470.63;10388387;28;1484;-51
2022/04/18 16:51:13;;;;;;;;;;;;;;;17.99;30.27;95475.06;10386570;28;2015;-52
2022/04/18 16:56:13;;;;;;;;;;;;;;;17.99;30.45;95461.97;10385904;28;1546;-50
2022/04/18 17:01:14;;;;;;;;;;;;;;;17.99;30.35;95461.19;10382786;28;2416;-50
2022/04/18 17:06:14;;;;;;;;;;;;;;;17.98;30.36;95460.41;10384495;28;1433;-48
2022/04/18 17:11:15;;;;;;;;;;;;;;;17.98;30.33;95459.63;10391994;28;1914;-49
2022/04/18 17:16:16;;;;;;;;;;;;;;;17.98;30.27;95464.84;10382182;28;1416;-51
2022/04/18 17:21:16;;;;;;;;;;;;;;;17.97;30.33;95460.69;10384668;28;1818;-49
2022/04/18 17:26:16;;;;;;;;;;;;;;;17.97;30.29;95458.06;10386195;28;1735;-55
2022/04/18 17:31:17;;;;;;;;;;;;;;;17.95;30.20;95457.53;10382269;28;1952;-52
2022/04/18 17:36:17;;;;;;;;;;;;;;;17.95;30.30;95455.69;10384495;28;1459;-51
2022/04/18 17:41:19;;;;;;;;;;;;;;;17.95;30.35;95457.53;10386514;28;1822;-52
2022/04/18 17:46:20;;;;;;;;;;;;;;;17.94;30.31;95458.56;10386014;28;1458;-52
2022/04/18 17:51:20;;;;;;;;;;;;;;;17.94;30.36;95451.50;10384654;28;1973;-55
2022/04/18 17:56:20;;;;;;;;;;;;;;;17.96;30.48;95462.50;10383719;28;1521;-49
2022/04/18 18:01:22;;;;;;;;;;;;;;;17.95;30.30;95465.41;10373700;28;1868;-53
2022/04/18 18:06:22;;;;;;;;;;;;;;;17.94;30.29;95464.59;10381945;28;1445;-52
2022/04/18 18:11:22;;;;;;;;;;;;;;;17.93;30.07;95467.50;10386847;28;1918;-53
2022/04/18 18:16:24;;;;;;;;;;;;;;;17.93;30.23;95470.13;10383904;28;1557;-52
2022/04/18 18:21:24;;;;;;;;;;;;;;;17.93;30.21;95472.75;10379015;28;1477;-50
2022/04/18 18:26:27;;;;;;;;;;;;;;;17.92;30.24;95473.78;10383231;28;1950;-51
2022/04/18 18:31:27;;;;;;;;;;;;;;;17.92;30.24;95482.44;10380373;28;1973;-55
2022/04/18 18:36:29;;;;;;;;;;;;;;;17.91;30.25;95488.72;10380818;28;1566;-54
2022/04/18 18:41:30;;;;;;;;;;;;;;;17.91;30.21;95493.97;10386171;28;1481;-53
2022/04/18 18:46:31;;;;;;;;;;;;;;;17.90;30.21;95497.66;10367504;28;1505;-55
2022/04/18 18:56:50;;;;;;;;;;;;;;;17.89;30.29;95503.94;10384945;28;1786;-54
2022/04/18 19:01:51;;;;;;;;;;;;;;;17.86;30.32;95510.50;10382049;28;1469;-50
2022/04/18 19:06:52;;;;;;;;;;;;;;;17.85;30.18;95514.16;10378795;28;1533;-54
2022/04/18 19:11:53;;;;;;;;;;;;;;;17.87;30.18;95513.88;10381221;28;1914;-54
2022/04/18 19:27:33;;;;;;;;;;;;;;;17.84;30.43;95509.97;10381079;28;1492;-54
2022/04/18 19:32:34;;;;;;;;;;;;;;;17.85;30.38;95514.16;10379497;28;1977;-54
2022/04/18 19:37:35;;;;;;;;;;;;;;;17.85;30.29;95508.13;10380850;28;1473;-51
2022/04/18 19:42:36;;;;;;;;;;;;;;;17.84;30.34;95511.81;10375172;28;1468;-53
2022/04/18 19:47:36;;;;;;;;;;;;;;;17.83;30.34;95503.16;10393345;22;3658;-57
2022/04/18 19:52:38;;;;;;;;;;;;;;;17.83;30.31;95502.34;10399920;28;1914;-57
2022/04/18 19:57:39;;;;;;;;;;;;;;;17.82;30.28;95503.41;10414763;28;1447;-56
2022/04/18 20:02:39;;;;;;;;;;;;;;;17.81;30.36;95501.84;10363646;28;1533;-59
2022/04/18 20:07:39;;;;;;;;;;;;;;;17.82;30.33;95498.97;10367730;28;2243;-59
2022/04/18 20:12:40;;;;;;;;;;;;;;;17.81;30.32;95491.34;10367198;28;1906;-57
2022/04/18 20:17:40;;;;;;;;;;;;;;;17.80;30.35;95495.78;10377264;28;1645;-56
2022/04/18 20:22:41;;;;;;;;;;;;;;;17.79;30.35;95491.63;10375892;28;1471;-55
2022/04/18 20:27:41;;;;;;;;;;;;;;;17.79;30.42;95494.22;10384689;28;1602;-57
2022/04/18 20:32:41;;;;;;;;;;;;;;;17.80;30.41;95495.03;10373230;28;1913;-57
2022/04/18 20:37:43;;;;;;;;;;;;;;;17.79;30.34;95483.75;10379106;28;1626;-58
2022/04/18 20:42:43;;;;;;;;;;;;;;;17.79;30.30;95486.38;10376305;28;1600;-56
2022/04/18 20:47:44;;;;;;;;;;;;;;;17.78;30.41;95484.78;10374408;28;1499;-56
2022/04/18 21:03:23;;;;;;;;;;;;;;;17.77;30.28;95480.59;10373166;28;1479;-58
2022/04/18 21:08:25;;;;;;;;;;;;;;;17.76;30.34;95471.16;10376674;28;1459;-57
2022/04/18 21:13:26;;;;;;;;;;;;;;;17.77;30.26;95477.97;10360168;28;1906;-56
2022/04/18 21:18:27;;;;;;;;;;;;;;;17.77;30.52;95474.56;10377070;28;1677;-56
2022/04/18 21:23:27;;;;;;;;;;;;;;;17.76;30.26;95468.53;10374689;28;1504;-58
2022/04/18 21:28:27;;;;;;;;;;;;;;;17.76;30.38;95463.28;10365488;28;1627;-58
2022/04/18 21:33:30;;;;;;;;;;;;;;;17.76;30.42;95458.03;10375418;28;1920;-59
2022/04/18 21:38:30;;;;;;;;;;;;;;;17.76;30.22;95452.03;10380019;28;1607;-59
2022/04/18 21:43:31;;;;;;;;;;;;;;;17.76;30.30;95452.78;10372133;28;1511;-60
2022/04/18 21:48:31;;;;;;;;;;;;;;;17.75;30.35;95446.00;10370944;28;1492;-59
2022/04/18 21:53:32;;;;;;;;;;;;;;;17.77;30.36;95448.34;10369195;28;1981;-56
2022/04/18 21:58:32;;;;;;;;;;;;;;;17.74;30.35;95446.25;10361553;28;1777;-55
2022/04/18 22:03:33;;;;;;;;;;;;;;;17.74;30.36;95439.16;10360329;28;1438;-56
2022/04/18 22:08:33;;;;;;;;;;;;;;;17.74;30.27;95433.91;10361056;28;1431;-56
2022/04/18 22:13:34;;;;;;;;;;;;;;;17.73;30.32;95429.75;10370483;28;1970;-57
2022/04/18 22:18:35;;;;;;;;;;;;;;;17.73;30.28;95416.63;10375240;28;1610;-55
2022/04/18 22:29:03;;;;;;;;;;;;;;;17.72;30.17;95415.03;10351855;28;1574;-56
2022/04/18 22:34:05;;;;;;;;;;;;;;;17.72;30.26;95415.03;10373804;28;1906;-56
2022/04/18 22:39:05;;;;;;;;;;;;;;;17.72;30.25;95399.31;10358972;28;1599;-55
2022/04/18 22:44:09;;;;;;;;;;;;;;;17.71;30.32;95397.75;10371072;28;1477;-58
2022/04/18 22:49:12;;;;;;;;;;;;;;;17.72;30.24;95391.47;10374187;28;1534;-55
2022/04/18 22:54:12;;;;;;;;;;;;;;;17.72;30.25;95388.06;10369424;28;1985;-55
2022/04/18 22:59:13;;;;;;;;;;;;;;;17.70;30.22;95383.06;10376350;28;1650;-58
2022/04/18 23:04:14;;;;;;;;;;;;;;;17.70;30.16;95375.22;10366718;28;1591;-58
2022/04/18 23:09:14;;;;;;;;;;;;;;;17.71;30.22;95370.75;10341444;28;1871;-57
2022/04/18 23:14:16;;;;;;;;;;;;;;;17.69;30.27;95368.41;10359286;28;1918;-57
2022/04/18 23:19:17;;;;;;;;;;;;;;;17.70;30.25;95364.72;10357931;28;1626;-58
2022/04/18 23:24:17;;;;;;;;;;;;;;;17.69;30.18;95359.75;10373469;28;1518;-56
2022/04/18 23:29:17;;;;;;;;;;;;;;;17.68;30.22;95343.22;10355531;28;2031;-57
2022/04/18 23:34:18;;;;;;;;;;;;;;;17.68;30.22;95343.22;10374043;28;1985;-55
2022/04/18 23:39:18;;;;;;;;;;;;;;;17.68;30.16;95343.22;10374454;28;2199;-57
2022/04/18 23:44:19;;;;;;;;;;;;;;;17.68;30.22;95334.59;10370285;28;1616;-58
2022/04/18 23:49:19;;;;;;;;;;;;;;;17.67;30.18;95339.06;10366607;28;1531;-57
2022/04/18 23:54:19;;;;;;;;;;;;;;;17.66;30.20;95332.22;10357892;28;1906;-55
2022/04/18 23:59:19;;;;;;;;;;;;;;;17.66;30.25;95321.75;10373821;28;1507;-56
